Weather at Kuala Belait Heliport

Public forecast

Using degrees Celsius for public forecast. Weather courtesy of forecast.io.

Closest aviation weather report (METAR) to Kuala Belait Heliport

Closest report is Miri Airport, 20.1 nm (37.1 km) SW. Retrieved 2022/01/16 10:00 UTC (7 minutes ago):

WBGR 161000Z 03008KT 350V070 9999 SCT016 28/24 Q1009

Closest aviation forecast (TAF) to Kuala Belait Heliport

Closest forecast is Miri Airport, 20.1 nm (37.1 km) SW. Retrieved 2022/01/16 06:00 UTC (4 hours ago):

TAF WBGR 160500Z 1606/1706 01007KT 9999 SCT016